Time;durP1;ratioP1;P1;durP2;ratioP2;P2;SDS_P1;SDS_P2;PMS_P1;PMS_P2;Temp;Humidity;BMP_temperature;BMP_pressure;BME280_temperature;BME280_humidity;BME280_pressure;Samples;Min_cycle;Max_cycle;Signal;HPM_P1;HPM_P2
2021/10/25 00:00:47;;;;;;;28.45;11.43;;;;;;;;;;5032104;28;20039;-60
2021/10/25 00:03:15;;;;;;;26.85;10.63;;;;;;;;;;5046573;28;20398;-60
2021/10/25 00:05:43;;;;;;;20.92;9.48;;;;;;;;;;5048049;28;20033;-58
2021/10/25 00:08:13;;;;;;;21.52;11.02;;;;;;;;;;5048336;28;22036;-60
2021/10/25 00:10:42;;;;;;;26.58;10.98;;;;;;;;;;5048734;28;20029;-59
2021/10/25 00:13:10;;;;;;;22.98;11.43;;;;;;;;;;5061633;28;20028;-59
2021/10/25 00:15:39;;;;;;;26.63;11.40;;;;;;;;;;5047956;28;20040;-59
2021/10/25 00:18:09;;;;;;;22.70;11.43;;;;;;;;;;5048354;28;20402;-59
2021/10/25 00:20:35;;;;;;;20.08;9.38;;;;;;;;;;5049783;28;20517;-59
2021/10/25 00:23:01;;;;;;;25.92;12.07;;;;;;;;;;5048184;28;20032;-59
2021/10/25 00:25:29;;;;;;;23.80;11.43;;;;;;;;;;5047385;28;20039;-60
2021/10/25 00:27:55;;;;;;;28.98;11.85;;;;;;;;;;5045841;28;20039;-59
2021/10/25 00:30:21;;;;;;;27.83;12.05;;;;;;;;;;5045425;28;20017;-59
2021/10/25 00:32:49;;;;;;;24.08;11.02;;;;;;;;;;5019298;28;20063;-60
2021/10/25 00:35:14;;;;;;;22.33;11.25;;;;;;;;;;5049135;28;20052;-59
2021/10/25 00:37:39;;;;;;;23.83;11.20;;;;;;;;;;5031330;28;20028;-59
2021/10/25 00:40:08;;;;;;;25.95;11.50;;;;;;;;;;5031581;28;20040;-61
2021/10/25 00:42:35;;;;;;;32.65;11.73;;;;;;;;;;5046103;28;20060;-59
2021/10/25 00:45:01;;;;;;;30.20;11.93;;;;;;;;;;5048811;28;20071;-60
2021/10/25 00:47:27;;;;;;;25.88;11.52;;;;;;;;;;5048368;28;20012;-58
2021/10/25 00:49:57;;;;;;;20.15;10.30;;;;;;;;;;5030046;28;20511;-60
2021/10/25 00:52:22;;;;;;;26.48;11.98;;;;;;;;;;5063054;28;20170;-59
2021/10/25 00:54:50;;;;;;;28.42;11.55;;;;;;;;;;5049075;28;20020;-59
2021/10/25 00:57:20;;;;;;;31.15;12.27;;;;;;;;;;5048437;28;20036;-59
2021/10/25 00:59:48;;;;;;;30.90;12.07;;;;;;;;;;5047077;28;20487;-59
2021/10/25 01:02:18;;;;;;;24.85;10.93;;;;;;;;;;5049200;28;20052;-60
2021/10/25 01:04:46;;;;;;;19.95;11.18;;;;;;;;;;5046290;28;20131;-58
2021/10/25 01:07:19;;;;;;;28.85;11.57;;;;;;;;;;5042255;28;20068;-59
2021/10/25 01:09:51;;;;;;;20.63;10.93;;;;;;;;;;5031043;28;20037;-60
2021/10/25 01:12:17;;;;;;;30.67;12.00;;;;;;;;;;5046295;28;20029;-60
2021/10/25 01:14:42;;;;;;;29.48;12.13;;;;;;;;;;5062311;28;20043;-60
2021/10/25 01:17:12;;;;;;;30.30;12.23;;;;;;;;;;5060883;28;20479;-59
2021/10/25 01:19:38;;;;;;;27.52;12.50;;;;;;;;;;5046385;28;20083;-59
2021/10/25 01:22:06;;;;;;;27.35;11.63;;;;;;;;;;5046018;28;21283;-60
2021/10/25 01:24:34;;;;;;;28.33;11.40;;;;;;;;;;5044988;28;20572;-60
2021/10/25 01:27:02;;;;;;;26.48;11.88;;;;;;;;;;5052531;28;20118;-59
2021/10/25 01:29:30;;;;;;;32.28;12.65;;;;;;;;;;5046837;28;20067;-60
2021/10/25 01:31:58;;;;;;;27.50;11.48;;;;;;;;;;5047143;28;20444;-60
2021/10/25 01:34:26;;;;;;;26.80;11.65;;;;;;;;;;5045142;28;20580;-59
2021/10/25 01:36:53;;;;;;;24.95;11.60;;;;;;;;;;5048349;28;20031;-58
2021/10/25 01:39:20;;;;;;;24.00;11.73;;;;;;;;;;5047670;28;20020;-60
2021/10/25 01:41:48;;;;;;;23.08;11.07;;;;;;;;;;5055644;28;20108;-60
2021/10/25 01:44:14;;;;;;;24.00;12.02;;;;;;;;;;5041143;28;20056;-59
2021/10/25 01:46:42;;;;;;;25.75;12.02;;;;;;;;;;5044245;28;20036;-58
2021/10/25 01:49:11;;;;;;;30.70;11.55;;;;;;;;;;5039808;28;20029;-60
2021/10/25 01:51:36;;;;;;;25.85;10.70;;;;;;;;;;5049599;28;20037;-60
2021/10/25 01:54:02;;;;;;;23.33;11.00;;;;;;;;;;5045402;28;20063;-59
2021/10/25 01:56:31;;;;;;;29.77;12.75;;;;;;;;;;5059051;28;21048;-57
2021/10/25 01:58:59;;;;;;;29.65;11.85;;;;;;;;;;5046286;28;20060;-59
2021/10/25 02:01:24;;;;;;;24.15;11.77;;;;;;;;;;5045453;28;20162;-58
2021/10/25 02:03:51;;;;;;;27.88;12.93;;;;;;;;;;5045357;28;20400;-59
2021/10/25 02:06:18;;;;;;;24.00;10.98;;;;;;;;;;5022521;28;20769;-59
2021/10/25 02:08:44;;;;;;;21.92;11.65;;;;;;;;;;5043276;28;20027;-58
2021/10/25 02:11:12;;;;;;;26.70;10.95;;;;;;;;;;5023150;28;20059;-58
2021/10/25 02:13:41;;;;;;;24.77;12.02;;;;;;;;;;5042440;28;20071;-58
2021/10/25 02:16:11;;;;;;;28.75;11.30;;;;;;;;;;5029271;28;20052;-58
2021/10/25 02:18:38;;;;;;;29.52;12.05;;;;;;;;;;5043457;28;20071;-60
2021/10/25 02:21:10;;;;;;;25.77;12.77;;;;;;;;;;5044406;28;20036;-59
2021/10/25 02:23:36;;;;;;;28.02;11.98;;;;;;;;;;5046536;28;20036;-59
2021/10/25 02:26:06;;;;;;;25.40;12.35;;;;;;;;;;5045276;28;21957;-59
2021/10/25 02:28:35;;;;;;;25.77;11.77;;;;;;;;;;5043554;28;20052;-58
2021/10/25 02:31:03;;;;;;;22.75;11.68;;;;;;;;;;5044199;28;20031;-58
2021/10/25 02:33:29;;;;;;;35.92;13.18;;;;;;;;;;5044342;28;20695;-59
2021/10/25 02:35:59;;;;;;;25.50;11.70;;;;;;;;;;5048616;28;20055;-59
2021/10/25 02:38:29;;;;;;;22.73;11.57;;;;;;;;;;5041793;28;20028;-58
2021/10/25 02:40:58;;;;;;;29.55;12.52;;;;;;;;;;5046635;28;20032;-58
2021/10/25 02:43:23;;;;;;;24.30;12.70;;;;;;;;;;5026793;28;20024;-58
2021/10/25 02:45:49;;;;;;;28.20;12.23;;;;;;;;;;5045229;28;20491;-59
2021/10/25 02:48:16;;;;;;;26.00;13.05;;;;;;;;;;5043974;28;20052;-59
2021/10/25 02:50:43;;;;;;;28.08;12.15;;;;;;;;;;5043998;28;20036;-58
2021/10/25 02:53:14;;;;;;;21.95;12.75;;;;;;;;;;5044472;28;20071;-56
2021/10/25 02:55:40;;;;;;;22.23;12.00;;;;;;;;;;5046118;28;20178;-59
2021/10/25 02:58:07;;;;;;;33.90;12.48;;;;;;;;;;5042957;28;20020;-60
2021/10/25 03:00:38;;;;;;;26.30;12.30;;;;;;;;;;5045928;28;20043;-59
2021/10/25 03:03:05;;;;;;;28.55;12.70;;;;;;;;;;5044523;28;20043;-59
2021/10/25 03:05:35;;;;;;;20.33;10.93;;;;;;;;;;5040958;28;20131;-59
2021/10/25 03:08:03;;;;;;;22.98;11.75;;;;;;;;;;5041385;28;20123;-59
2021/10/25 03:10:31;;;;;;;34.45;12.77;;;;;;;;;;5042532;28;20120;-58
2021/10/25 03:12:57;;;;;;;26.35;11.48;;;;;;;;;;5044345;28;20021;-58
2021/10/25 03:15:25;;;;;;;30.05;13.55;;;;;;;;;;5044665;28;20032;-60
2021/10/25 03:17:51;;;;;;;30.75;13.63;;;;;;;;;;5044779;28;20585;-59
2021/10/25 03:20:16;;;;;;;29.73;13.25;;;;;;;;;;5046768;28;20039;-59
2021/10/25 03:22:45;;;;;;;33.03;14.30;;;;;;;;;;5046204;28;20123;-59
2021/10/25 03:25:16;;;;;;;27.10;13.18;;;;;;;;;;5047023;28;20036;-59
2021/10/25 03:27:42;;;;;;;30.10;13.43;;;;;;;;;;5044201;28;20327;-59
2021/10/25 03:30:07;;;;;;;30.85;13.60;;;;;;;;;;5058756;28;20029;-58
2021/10/25 03:32:38;;;;;;;25.67;11.98;;;;;;;;;;5046230;28;20546;-58
2021/10/25 03:35:06;;;;;;;27.80;12.93;;;;;;;;;;5059802;28;20037;-58
2021/10/25 03:37:34;;;;;;;29.85;12.45;;;;;;;;;;5045172;28;20108;-58
2021/10/25 03:40:02;;;;;;;28.25;11.82;;;;;;;;;;5029308;28;20055;-58
2021/10/25 03:42:39;;;;;;;22.13;10.93;;;;;;;;;;5046754;28;20155;-59
2021/10/25 03:48:01;;;;;;;25.40;11.73;;;;;;;;;;5045837;28;20031;-58
2021/10/25 03:50:32;;;;;;;30.98;12.32;;;;;;;;;;5045217;28;20045;-59
2021/10/25 04:27:54;;;;;;;27.73;13.90;;;;;;;;;;5025583;28;20850;-58
2021/10/25 04:30:20;;;;;;;28.73;14.23;;;;;;;;;;5029536;28;20032;-59
2021/10/25 04:32:54;;;;;;;28.02;14.07;;;;;;;;;;5024505;28;20040;-58
2021/10/25 04:35:20;;;;;;;30.70;14.32;;;;;;;;;;5009536;28;20075;-58
2021/10/25 04:37:50;;;;;;;29.00;12.85;;;;;;;;;;5027783;28;22257;-58
2021/10/25 04:40:20;;;;;;;27.50;13.27;;;;;;;;;;5030919;28;20029;-58
2021/10/25 04:42:50;;;;;;;28.65;13.57;;;;;;;;;;5027908;28;20041;-59
2021/10/25 04:45:19;;;;;;;36.67;14.20;;;;;;;;;;5029470;28;20124;-60
2021/10/25 04:47:46;;;;;;;36.72;13.25;;;;;;;;;;5030963;28;20021;-59
2021/10/25 04:50:14;;;;;;;25.83;13.82;;;;;;;;;;5011597;28;20041;-57
2021/10/25 04:52:42;;;;;;;25.98;12.52;;;;;;;;;;5030884;28;20675;-58
2021/10/25 04:55:12;;;;;;;27.05;14.23;;;;;;;;;;5031867;28;21006;-57
2021/10/25 04:57:39;;;;;;;23.75;13.20;;;;;;;;;;5027999;28;20040;-57
2021/10/25 05:00:06;;;;;;;27.73;12.88;;;;;;;;;;5026074;28;20120;-57
2021/10/25 05:02:37;;;;;;;30.20;13.80;;;;;;;;;;5043549;28;20039;-57
2021/10/25 05:05:05;;;;;;;30.20;12.60;;;;;;;;;;5028504;28;20812;-58
2021/10/25 05:07:33;;;;;;;25.70;13.13;;;;;;;;;;5029735;28;20032;-57
2021/10/25 05:10:01;;;;;;;29.00;12.73;;;;;;;;;;5027043;28;20060;-57
2021/10/25 05:12:29;;;;;;;28.55;11.45;;;;;;;;;;5020392;28;20017;-57
2021/10/25 05:14:58;;;;;;;29.15;13.63;;;;;;;;;;5018610;28;20037;-57
2021/10/25 05:17:25;;;;;;;30.65;12.88;;;;;;;;;;5045131;28;20663;-58
2021/10/25 05:19:58;;;;;;;24.10;11.80;;;;;;;;;;5046601;28;20044;-57
2021/10/25 05:22:26;;;;;;;26.10;12.82;;;;;;;;;;5032116;28;20032;-59
2021/10/25 05:24:52;;;;;;;33.08;13.35;;;;;;;;;;5049704;28;20044;-57
2021/10/25 05:27:20;;;;;;;26.15;12.00;;;;;;;;;;5047356;28;20025;-57
2021/10/25 05:29:46;;;;;;;24.20;12.45;;;;;;;;;;5046547;28;20034;-57
2021/10/25 05:32:14;;;;;;;28.63;11.95;;;;;;;;;;5045459;28;20028;-57
2021/10/25 05:34:39;;;;;;;28.60;13.68;;;;;;;;;;5046501;28;20056;-57
2021/10/25 05:37:08;;;;;;;24.38;12.40;;;;;;;;;;5045623;28;20040;-58
2021/10/25 05:39:33;;;;;;;23.25;12.20;;;;;;;;;;5060687;28;20028;-58
2021/10/25 05:42:02;;;;;;;22.60;12.43;;;;;;;;;;5045781;28;20391;-58
2021/10/25 05:44:29;;;;;;;21.08;11.48;;;;;;;;;;5043825;28;20040;-58
2021/10/25 05:47:00;;;;;;;27.25;13.13;;;;;;;;;;5062271;28;20432;-57
2021/10/25 05:49:27;;;;;;;26.33;12.35;;;;;;;;;;5030128;28;20029;-58
2021/10/25 05:51:53;;;;;;;24.92;12.82;;;;;;;;;;5045847;28;20040;-57
2021/10/25 05:57:58;;;;;;;25.30;13.00;;;;;;;;;;5046256;28;20024;-60
2021/10/25 06:00:32;;;;;;;27.88;12.25;;;;;;;;;;5046489;28;20024;-57
2021/10/25 06:03:00;;;;;;;24.95;14.05;;;;;;;;;;5045004;28;20078;-57
2021/10/25 06:05:28;;;;;;;29.88;12.70;;;;;;;;;;5046348;28;20036;-57
2021/10/25 06:07:56;;;;;;;25.75;13.63;;;;;;;;;;5046937;28;20028;-58
2021/10/25 06:10:30;;;;;;;28.63;12.68;;;;;;;;;;5043842;28;20025;-58
2021/10/25 06:13:03;;;;;;;24.85;13.10;;;;;;;;;;5032799;28;20041;-58
2021/10/25 06:15:34;;;;;;;20.05;11.32;;;;;;;;;;5045993;28;20036;-58
2021/10/25 06:18:08;;;;;;;27.90;13.10;;;;;;;;;;5029305;28;20052;-57
2021/10/25 06:20:42;;;;;;;29.73;12.65;;;;;;;;;;5048095;28;20024;-58
2021/10/25 06:23:12;;;;;;;22.98;13.02;;;;;;;;;;5061597;28;20040;-58
2021/10/25 06:25:38;;;;;;;30.63;12.90;;;;;;;;;;5028725;28;20032;-58
2021/10/25 06:28:04;;;;;;;25.23;12.88;;;;;;;;;;5046663;28;20024;-58
2021/10/25 06:30:35;;;;;;;25.38;12.05;;;;;;;;;;5046321;28;20029;-58
2021/10/25 06:33:04;;;;;;;29.63;13.25;;;;;;;;;;5045857;28;20036;-58
2021/10/25 06:35:31;;;;;;;31.70;12.00;;;;;;;;;;5044144;28;20041;-57
2021/10/25 06:40:23;;;;;;;28.27;12.73;;;;;;;;;;5045970;28;20537;-57
2021/10/25 06:42:51;;;;;;;24.30;11.98;;;;;;;;;;5045583;28;21073;-57
2021/10/25 06:45:20;;;;;;;28.92;13.50;;;;;;;;;;5027993;28;20028;-57
2021/10/25 06:47:46;;;;;;;32.30;12.10;;;;;;;;;;5047473;28;20024;-57
2021/10/25 06:50:17;;;;;;;23.08;11.82;;;;;;;;;;5062005;28;20475;-57
2021/10/25 06:52:43;;;;;;;33.53;14.02;;;;;;;;;;5048706;28;20039;-58
2021/10/25 06:55:11;;;;;;;27.83;12.60;;;;;;;;;;5046033;28;20463;-59
2021/10/25 06:57:38;;;;;;;25.90;12.70;;;;;;;;;;5043322;28;20116;-57
2021/10/25 07:00:06;;;;;;;24.80;13.07;;;;;;;;;;5026909;28;20408;-57
2021/10/25 07:02:37;;;;;;;24.73;12.82;;;;;;;;;;5025296;28;20036;-58
2021/10/25 07:05:03;;;;;;;30.13;12.90;;;;;;;;;;5043597;28;20345;-58
2021/10/25 07:07:30;;;;;;;20.17;12.05;;;;;;;;;;5046959;28;20594;-58
2021/10/25 07:10:02;;;;;;;23.00;12.75;;;;;;;;;;5048603;28;20229;-57
2021/10/25 07:12:31;;;;;;;27.80;12.23;;;;;;;;;;5046544;28;20028;-57
2021/10/25 07:15:04;;;;;;;21.10;12.82;;;;;;;;;;5045711;28;20032;-55
2021/10/25 07:17:49;;;;;;;30.40;12.50;;;;;;;;;;5048586;28;20078;-56
2021/10/25 07:21:08;;;;;;;23.38;11.80;;;;;;;;;;5048265;28;20122;-56
2021/10/25 08:11:41;;;;;;;17.02;9.70;;;;;;;;;;5051903;28;20033;-58
2021/10/25 08:14:09;;;;;;;17.17;8.93;;;;;;;;;;5051599;28;20145;-57
2021/10/25 08:16:52;;;;;;;16.48;8.98;;;;;;;;;;5068763;28;20139;-57
2021/10/25 08:19:25;;;;;;;23.38;9.45;;;;;;;;;;5049961;28;20503;-57
2021/10/25 08:21:55;;;;;;;12.93;8.52;;;;;;;;;;5049281;28;20438;-57
2021/10/25 08:24:25;;;;;;;18.55;8.70;;;;;;;;;;5050938;28;20747;-56
2021/10/25 08:26:54;;;;;;;15.20;8.38;;;;;;;;;;5053271;28;20794;-57
2021/10/25 08:29:22;;;;;;;14.93;7.75;;;;;;;;;;5051943;28;20052;-57
2021/10/25 08:31:57;;;;;;;15.20;8.88;;;;;;;;;;5053862;28;20131;-57
2021/10/25 08:39:57;;;;;;;19.95;9.38;;;;;;;;;;5049870;28;20135;-58
2021/10/25 08:42:27;;;;;;;22.27;8.68;;;;;;;;;;5029403;28;20040;-58
2021/10/25 08:44:56;;;;;;;17.10;9.27;;;;;;;;;;5038569;28;20860;-57
2021/10/25 08:47:30;;;;;;;18.23;8.90;;;;;;;;;;5050957;28;20032;-57
2021/10/25 08:49:56;;;;;;;15.35;9.10;;;;;;;;;;5050067;28;20024;-58
2021/10/25 08:52:29;;;;;;;18.10;9.18;;;;;;;;;;5051666;28;20126;-58
2021/10/25 08:54:57;;;;;;;20.15;9.45;;;;;;;;;;5049820;28;20039;-58
2021/10/25 08:57:23;;;;;;;15.50;9.75;;;;;;;;;;5041824;28;20055;-59
2021/10/25 08:59:59;;;;;;;13.75;9.25;;;;;;;;;;5048891;28;20032;-58
2021/10/25 09:02:26;;;;;;;19.73;9.77;;;;;;;;;;5031394;28;20174;-58
2021/10/25 09:05:04;;;;;;;18.17;10.00;;;;;;;;;;5048831;28;20056;-58
2021/10/25 09:07:30;;;;;;;17.65;9.55;;;;;;;;;;5050473;28;20079;-58
2021/10/25 09:09:56;;;;;;;18.50;8.95;;;;;;;;;;5049445;28;20048;-57
2021/10/25 09:12:22;;;;;;;22.52;9.52;;;;;;;;;;5047068;28;20210;-59
2021/10/25 09:14:50;;;;;;;18.73;9.30;;;;;;;;;;5044893;28;20116;-59
2021/10/25 09:17:18;;;;;;;15.75;8.85;;;;;;;;;;5046934;28;20056;-59
2021/10/25 09:19:48;;;;;;;18.73;8.18;;;;;;;;;;5046597;28;20043;-58
2021/10/25 09:22:18;;;;;;;17.38;8.80;;;;;;;;;;5049678;28;20036;-58
2021/10/25 09:24:56;;;;;;;18.02;9.23;;;;;;;;;;5049318;28;20041;-58
2021/10/25 09:27:27;;;;;;;16.08;9.10;;;;;;;;;;5048439;28;20091;-58
2021/10/25 09:29:57;;;;;;;12.98;8.73;;;;;;;;;;5046592;28;20021;-58
2021/10/25 09:32:29;;;;;;;19.73;9.23;;;;;;;;;;5049312;28;20116;-58
2021/10/25 09:34:57;;;;;;;13.30;7.90;;;;;;;;;;5045943;28;20042;-59
2021/10/25 09:37:30;;;;;;;15.90;9.02;;;;;;;;;;5065147;28;20085;-59
2021/10/25 09:40:08;;;;;;;17.40;8.48;;;;;;;;;;5029957;28;20457;-60
2021/10/25 09:43:10;;;;;;;14.68;8.05;;;;;;;;;;5047311;28;20049;-60
2021/10/25 09:45:45;;;;;;;17.35;8.85;;;;;;;;;;5048497;28;20070;-60
2021/10/25 09:50:56;;;;;;;;;;;;;;;;;;5048684;28;20039;-58
2021/10/25 09:53:34;;;;;;;13.32;8.32;;;;;;;;;;5049886;28;19916;-58
2021/10/25 09:56:00;;;;;;;12.73;7.25;;;;;;;;;;5051194;28;20120;-59
2021/10/25 09:58:53;;;;;;;15.15;7.40;;;;;;;;;;5048525;28;20111;-58
2021/10/25 10:01:23;;;;;;;13.43;8.05;;;;;;;;;;5048487;28;20087;-59
2021/10/25 10:03:49;;;;;;;14.25;8.07;;;;;;;;;;5030158;28;20426;-59
2021/10/25 10:06:20;;;;;;;13.75;7.95;;;;;;;;;;5050574;28;20036;-58
2021/10/25 10:08:46;;;;;;;14.48;8.32;;;;;;;;;;5047095;28;20398;-59
2021/10/25 10:11:13;;;;;;;15.20;7.80;;;;;;;;;;5050077;28;20553;-58
2021/10/25 10:13:42;;;;;;;14.57;7.90;;;;;;;;;;5047154;28;20055;-60
2021/10/25 10:16:10;;;;;;;13.25;7.50;;;;;;;;;;5062693;28;20044;-58
2021/10/25 10:18:47;;;;;;;14.95;7.63;;;;;;;;;;5047037;28;20414;-58
2021/10/25 10:21:15;;;;;;;13.13;7.55;;;;;;;;;;5047492;28;20595;-60
2021/10/25 10:23:47;;;;;;;15.30;8.38;;;;;;;;;;5030211;28;20047;-59
2021/10/25 10:26:14;;;;;;;13.30;7.95;;;;;;;;;;5049901;28;20028;-59
2021/10/25 10:28:50;;;;;;;12.90;7.82;;;;;;;;;;5045394;28;20085;-58
2021/10/25 10:31:27;;;;;;;12.77;7.43;;;;;;;;;;5033961;28;20036;-59
2021/10/25 10:34:00;;;;;;;11.27;7.10;;;;;;;;;;5062917;28;20028;-61
2021/10/25 10:36:35;;;;;;;14.40;7.25;;;;;;;;;;5048416;28;20062;-59
2021/10/25 10:39:07;;;;;;;11.68;7.70;;;;;;;;;;5049122;28;20052;-58
2021/10/25 10:41:36;;;;;;;11.68;7.30;;;;;;;;;;5047587;28;20041;-59
2021/10/25 10:44:05;;;;;;;9.63;6.70;;;;;;;;;;5045652;28;20527;-59
2021/10/25 10:46:48;;;;;;;9.13;6.45;;;;;;;;;;5047801;28;20032;-59
2021/10/25 10:49:18;;;;;;;8.07;6.00;;;;;;;;;;5030786;28;20041;-59
2021/10/25 10:51:46;;;;;;;13.60;7.13;;;;;;;;;;5049210;28;20028;-59
2021/10/25 10:54:21;;;;;;;10.35;6.50;;;;;;;;;;5046376;28;20086;-60
2021/10/25 10:57:04;;;;;;;9.75;6.60;;;;;;;;;;5039197;28;20040;-56
2021/10/25 10:59:36;;;;;;;9.05;6.70;;;;;;;;;;5046424;28;20047;-58
2021/10/25 11:02:06;;;;;;;11.77;7.50;;;;;;;;;;5047763;28;20667;-59
2021/10/25 11:04:33;;;;;;;9.73;5.95;;;;;;;;;;5048014;28;20607;-60
2021/10/25 11:06:59;;;;;;;9.40;5.88;;;;;;;;;;5029981;28;20031;-58
2021/10/25 11:09:28;;;;;;;8.88;5.78;;;;;;;;;;5046123;28;20032;-58
2021/10/25 11:12:05;;;;;;;6.80;5.25;;;;;;;;;;5061632;28;20111;-58
2021/10/25 11:14:34;;;;;;;10.25;6.60;;;;;;;;;;5037282;28;20028;-57
2021/10/25 11:19:55;;;;;;;12.60;6.90;;;;;;;;;;5044519;28;20047;-58
2021/10/25 11:22:29;;;;;;;11.63;6.03;;;;;;;;;;5047985;28;20036;-58
2021/10/25 11:24:57;;;;;;;12.02;5.47;;;;;;;;;;5045322;28;20036;-57
2021/10/25 11:27:31;;;;;;;6.97;4.88;;;;;;;;;;5046629;28;20025;-57
2021/10/25 11:30:25;;;;;;;8.00;5.20;;;;;;;;;;5045734;28;20103;-57
2021/10/25 11:32:53;;;;;;;7.55;4.70;;;;;;;;;;5044347;28;20118;-57
2021/10/25 11:35:21;;;;;;;8.98;5.40;;;;;;;;;;5048814;28;20210;-57
2021/10/25 11:38:02;;;;;;;7.00;4.63;;;;;;;;;;5049685;28;20032;-57
2021/10/25 11:40:30;;;;;;;5.53;4.25;;;;;;;;;;5033285;28;20033;-58
2021/10/25 11:43:01;;;;;;;8.98;4.35;;;;;;;;;;5048776;28;20911;-58
2021/10/25 11:45:29;;;;;;;6.18;4.53;;;;;;;;;;5049246;28;20123;-58
2021/10/25 11:47:57;;;;;;;6.38;4.55;;;;;;;;;;5049966;28;20132;-58
2021/10/25 11:50:30;;;;;;;6.22;4.15;;;;;;;;;;5048567;28;20072;-57
2021/10/25 11:53:02;;;;;;;7.82;4.80;;;;;;;;;;5051440;28;20032;-58
2021/10/25 11:55:31;;;;;;;8.23;5.25;;;;;;;;;;5050168;28;20062;-58
2021/10/25 11:57:59;;;;;;;7.43;4.43;;;;;;;;;;5050125;28;20039;-58
2021/10/25 12:00:31;;;;;;;5.47;4.28;;;;;;;;;;5067222;28;20653;-58
2021/10/25 12:03:03;;;;;;;5.93;4.13;;;;;;;;;;5051088;28;20033;-58
2021/10/25 12:05:33;;;;;;;5.15;4.22;;;;;;;;;;5042069;28;20024;-58
2021/10/25 12:07:59;;;;;;;5.40;4.43;;;;;;;;;;5054344;28;20038;-57
2021/10/25 12:13:41;;;;;;;6.05;3.67;;;;;;;;;;5051123;28;20048;-58
2021/10/25 12:16:13;;;;;;;5.18;3.60;;;;;;;;;;5050546;28;20209;-58
2021/10/25 12:18:43;;;;;;;10.25;4.57;;;;;;;;;;5048352;28;20082;-57
2021/10/25 12:21:13;;;;;;;6.63;4.40;;;;;;;;;;5040659;28;20040;-57
2021/10/25 12:23:46;;;;;;;6.88;4.88;;;;;;;;;;5050816;28;20070;-57
2021/10/25 12:26:17;;;;;;;6.85;5.05;;;;;;;;;;5040857;28;20045;-58
2021/10/25 12:28:42;;;;;;;6.18;4.43;;;;;;;;;;5013981;28;20028;-57
2021/10/25 12:31:11;;;;;;;7.20;4.63;;;;;;;;;;5050379;28;20052;-57
2021/10/25 12:33:38;;;;;;;7.70;5.10;;;;;;;;;;5049197;28;20033;-58
2021/10/25 12:36:11;;;;;;;10.27;5.72;;;;;;;;;;5051371;28;20128;-57
2021/10/25 12:38:40;;;;;;;9.07;4.90;;;;;;;;;;5044806;28;20071;-57
2021/10/25 12:41:13;;;;;;;8.73;5.40;;;;;;;;;;5031915;28;20032;-57
2021/10/25 12:43:40;;;;;;;12.32;6.60;;;;;;;;;;5062130;28;20044;-57
2021/10/25 12:46:13;;;;;;;11.50;6.45;;;;;;;;;;5023816;28;20036;-57
2021/10/25 12:48:40;;;;;;;9.45;6.03;;;;;;;;;;5050061;28;20029;-58
2021/10/25 12:51:10;;;;;;;13.43;7.05;;;;;;;;;;5049032;28;20024;-57
2021/10/25 12:53:44;;;;;;;9.75;6.30;;;;;;;;;;5052370;28;20046;-59
2021/10/25 12:56:24;;;;;;;11.93;7.25;;;;;;;;;;5033042;28;20052;-58
2021/10/25 12:58:58;;;;;;;14.95;7.88;;;;;;;;;;5047323;28;20028;-57
2021/10/25 13:01:29;;;;;;;18.08;8.25;;;;;;;;;;5041214;28;20918;-59
2021/10/25 13:03:56;;;;;;;15.13;7.95;;;;;;;;;;5033768;28;20067;-61
2021/10/25 13:06:31;;;;;;;17.85;9.20;;;;;;;;;;5049469;28;20021;-59
2021/10/25 13:09:02;;;;;;;14.18;8.88;;;;;;;;;;5049332;28;20392;-58
2021/10/25 13:11:28;;;;;;;17.85;8.55;;;;;;;;;;5047431;28;20039;-58
2021/10/25 13:13:57;;;;;;;16.25;8.77;;;;;;;;;;5030656;28;20052;-59
2021/10/25 13:16:30;;;;;;;17.92;9.00;;;;;;;;;;5043788;28;20040;-58
2021/10/25 13:18:58;;;;;;;17.45;9.27;;;;;;;;;;5043622;28;20044;-57
2021/10/25 13:21:24;;;;;;;23.95;9.40;;;;;;;;;;5048047;28;20546;-59
2021/10/25 13:23:49;;;;;;;21.17;9.10;;;;;;;;;;5046408;28;20032;-58
2021/10/25 13:26:15;;;;;;;20.45;9.75;;;;;;;;;;5044054;28;20045;-58
2021/10/25 13:28:42;;;;;;;18.73;9.88;;;;;;;;;;5024809;28;20028;-58
2021/10/25 13:31:10;;;;;;;19.30;9.63;;;;;;;;;;5045268;28;20147;-58
2021/10/25 13:33:37;;;;;;;17.95;9.57;;;;;;;;;;5042686;28;20039;-58
2021/10/25 13:36:03;;;;;;;17.13;9.10;;;;;;;;;;5043765;28;20035;-57
2021/10/25 13:38:28;;;;;;;21.92;10.68;;;;;;;;;;5026766;28;20039;-57
2021/10/25 13:40:53;;;;;;;21.02;9.93;;;;;;;;;;5028696;28;20028;-60
2021/10/25 13:43:24;;;;;;;24.95;11.43;;;;;;;;;;5036876;28;20454;-58
2021/10/25 13:45:52;;;;;;;28.48;10.48;;;;;;;;;;5062086;28;20036;-58
2021/10/25 13:48:17;;;;;;;21.73;10.07;;;;;;;;;;5041214;28;20028;-58
2021/10/25 13:50:43;;;;;;;25.38;10.73;;;;;;;;;;5045345;28;20033;-59
2021/10/25 13:53:12;;;;;;;20.48;10.35;;;;;;;;;;5027705;28;20055;-59
2021/10/25 13:55:42;;;;;;;16.90;9.02;;;;;;;;;;5027436;28;20032;-59
2021/10/25 13:58:08;;;;;;;22.42;10.48;;;;;;;;;;5023755;28;20040;-59
2021/10/25 14:00:38;;;;;;;22.98;10.60;;;;;;;;;;5043289;28;20033;-59
2021/10/25 14:03:04;;;;;;;18.30;8.95;;;;;;;;;;5036509;28;20059;-59
2021/10/25 14:05:32;;;;;;;23.35;10.98;;;;;;;;;;5045122;28;20528;-59
2021/10/25 14:07:58;;;;;;;24.17;10.50;;;;;;;;;;5028977;28;20029;-59
2021/10/25 14:13:09;;;;;;;23.20;11.20;;;;;;;;;;5046899;28;20119;-60
2021/10/25 14:15:48;;;;;;;23.10;11.35;;;;;;;;;;5043039;28;20041;-59
2021/10/25 14:18:16;;;;;;;24.92;10.60;;;;;;;;;;5044144;28;20178;-60
2021/10/25 14:20:44;;;;;;;28.73;11.50;;;;;;;;;;5046106;28;20040;-60
2021/10/25 14:23:11;;;;;;;21.65;10.38;;;;;;;;;;5059797;28;20693;-58
2021/10/25 14:25:37;;;;;;;24.90;11.75;;;;;;;;;;5045388;28;20041;-58
2021/10/25 14:28:05;;;;;;;24.58;10.60;;;;;;;;;;5044368;28;20033;-59
2021/10/25 14:30:33;;;;;;;23.15;11.98;;;;;;;;;;5044921;28;20036;-59
2021/10/25 14:32:59;;;;;;;30.02;11.98;;;;;;;;;;5042781;28;20032;-59
2021/10/25 14:35:28;;;;;;;33.28;12.73;;;;;;;;;;5011001;28;20041;-59
2021/10/25 14:37:56;;;;;;;31.88;12.02;;;;;;;;;;5044223;28;20051;-58
2021/10/25 14:40:27;;;;;;;26.20;12.18;;;;;;;;;;5049187;28;20036;-60
2021/10/25 14:43:00;;;;;;;37.10;13.48;;;;;;;;;;5037211;28;20035;-60
2021/10/25 14:45:32;;;;;;;39.20;14.82;;;;;;;;;;5037843;28;20048;-60
2021/10/25 14:53:22;;;;;;;36.22;14.63;;;;;;;;;;5039189;28;20048;-58
2021/10/25 14:58:24;;;;;;;37.05;13.98;;;;;;;;;;5045311;28;21246;-59
2021/10/25 15:00:49;;;;;;;36.40;15.70;;;;;;;;;;5047802;28;20809;-59
2021/10/25 15:03:15;;;;;;;40.17;15.38;;;;;;;;;;5043897;28;20036;-60
2021/10/25 15:05:47;;;;;;;46.10;14.98;;;;;;;;;;5047509;28;20032;-59
2021/10/25 15:08:15;;;;;;;40.00;15.20;;;;;;;;;;5029500;28;20071;-59
2021/10/25 15:10:41;;;;;;;41.50;15.90;;;;;;;;;;5042348;28;20981;-59
2021/10/25 15:13:07;;;;;;;41.92;15.93;;;;;;;;;;5045411;28;20041;-59
2021/10/25 15:15:32;;;;;;;38.30;15.57;;;;;;;;;;5046732;28;20062;-59
2021/10/25 15:18:01;;;;;;;46.58;16.50;;;;;;;;;;5698817;22;20348;-59
2021/10/25 15:21:05;;;;;;;45.15;17.00;;;;;;;;;;5086437;27;20457;-57
2021/10/25 15:23:34;;;;;;;45.90;16.63;;;;;;;;;;5091787;27;20129;-58
2021/10/25 15:25:59;;;;;;;53.03;17.80;;;;;;;;;;5060548;28;20119;-57
2021/10/25 15:28:25;;;;;;;48.72;16.83;;;;;;;;;;5071750;28;20039;-58
2021/10/25 15:30:51;;;;;;;48.38;17.70;;;;;;;;;;5088494;28;20012;-59
2021/10/25 15:33:19;;;;;;;42.95;18.25;;;;;;;;;;5090591;28;20031;-58
2021/10/25 15:35:51;;;;;;;50.03;19.80;;;;;;;;;;5088535;28;20039;-58
2021/10/25 15:38:19;;;;;;;52.42;17.27;;;;;;;;;;5055883;28;20547;-58
2021/10/25 15:40:49;;;;;;;50.28;18.08;;;;;;;;;;5073935;28;20032;-59
2021/10/25 15:43:15;;;;;;;46.50;17.98;;;;;;;;;;5087869;28;20077;-59
2021/10/25 15:45:43;;;;;;;50.20;18.95;;;;;;;;;;5061958;28;20831;-57
2021/10/25 15:48:08;;;;;;;49.75;18.08;;;;;;;;;;5070877;28;20070;-59
2021/10/25 15:51:06;;;;;;;57.65;17.88;;;;;;;;;;5088927;28;20615;-59
2021/10/25 15:53:35;;;;;;;36.92;17.27;;;;;;;;;;5089972;28;20042;-59
2021/10/25 15:56:05;;;;;;;52.83;18.65;;;;;;;;;;5090513;28;20719;-59
2021/10/25 15:58:33;;;;;;;48.90;18.67;;;;;;;;;;5091434;28;20027;-59
2021/10/25 16:00:59;;;;;;;57.80;18.52;;;;;;;;;;5037708;28;20162;-59
2021/10/25 16:03:25;;;;;;;47.75;18.15;;;;;;;;;;5090369;28;20033;-59
2021/10/25 16:05:51;;;;;;;59.67;18.52;;;;;;;;;;5070870;28;20389;-58
2021/10/25 16:08:16;;;;;;;48.22;17.58;;;;;;;;;;5070388;28;20058;-58
2021/10/25 16:10:43;;;;;;;47.90;17.35;;;;;;;;;;5073852;28;20521;-59
2021/10/25 16:13:09;;;;;;;49.75;16.70;;;;;;;;;;5087239;28;20039;-59
2021/10/25 16:15:38;;;;;;;53.67;20.23;;;;;;;;;;5070645;28;20523;-59
2021/10/25 16:18:04;;;;;;;42.00;16.20;;;;;;;;;;5078984;28;20028;-59
2021/10/25 16:20:30;;;;;;;49.90;17.70;;;;;;;;;;5060960;28;20117;-60
2021/10/25 16:23:05;;;;;;;44.40;18.13;;;;;;;;;;5066514;28;20964;-58
2021/10/25 16:25:31;;;;;;;49.03;17.77;;;;;;;;;;5073853;28;20036;-59
2021/10/25 16:27:58;;;;;;;43.88;17.42;;;;;;;;;;5054007;28;20050;-59
2021/10/25 16:30:32;;;;;;;49.58;17.50;;;;;;;;;;5071760;28;20082;-58
2021/10/25 16:33:03;;;;;;;44.95;18.67;;;;;;;;;;5072130;28;20098;-57